createdAt,value
2019-03-26T00:00:08.385Z,6.73
2019-03-26T00:02:41.473Z,6.78
2019-03-26T00:05:13.131Z,6.73
2019-03-26T00:07:44.584Z,6.74
2019-03-26T00:10:16.247Z,6.82
2019-03-26T00:13:42.958Z,6.82
2019-03-26T00:16:23.215Z,6.77
2019-03-26T00:18:54.866Z,6.83
2019-03-26T00:21:26.533Z,6.78
2019-03-26T00:23:58.332Z,6.77
2019-03-26T00:26:29.951Z,6.74
2019-03-26T00:29:01.703Z,6.79
2019-03-26T00:31:33.062Z,6.74
2019-03-26T00:34:18.345Z,6.80
2019-03-26T00:36:38.012Z,6.72
2019-03-26T00:39:09.722Z,6.79
2019-03-26T00:41:41.433Z,6.75
2019-03-26T00:44:12.980Z,6.69
2019-03-26T00:46:44.846Z,6.70
2019-03-26T00:49:16.603Z,6.67
2019-03-26T00:51:48.157Z,6.64
2019-03-26T00:54:19.924Z,6.62
2019-03-26T00:56:51.373Z,6.57
2019-03-26T00:59:23.338Z,6.54
2019-03-26T01:01:54.898Z,6.69
2019-03-26T01:04:32.617Z,6.61
2019-03-26T01:06:59.741Z,6.60
2019-03-26T01:09:31.297Z,6.62
2019-03-26T01:12:03.059Z,6.52
2019-03-26T01:14:34.919Z,6.60
2019-03-26T01:17:06.480Z,6.61
2019-03-26T01:19:38.238Z,6.67
2019-03-26T01:22:09.707Z,6.60
2019-03-26T01:24:41.848Z,6.59
2019-03-26T01:27:13.504Z,6.59
2019-03-26T01:29:45.267Z,6.62
2019-03-26T01:32:17.228Z,6.55
2019-03-26T01:34:48.991Z,6.66
2019-03-26T01:37:20.554Z,6.65
2019-03-26T01:39:52.309Z,6.73
2019-03-26T01:42:24.065Z,6.61
2019-03-26T01:44:55.524Z,6.58
2019-03-26T01:47:57.757Z,6.61
2019-03-26T01:50:30.138Z,6.73
2019-03-26T01:53:01.697Z,6.69
2019-03-26T01:55:33.365Z,6.56
2019-03-26T01:58:05.108Z,6.56
2019-03-26T02:00:36.819Z,6.53
2019-03-26T02:03:08.430Z,6.67
2019-03-26T02:05:40.202Z,6.61
2019-03-26T02:08:11.760Z,6.58
2019-03-26T02:10:43.311Z,6.59
2019-03-26T02:13:14.955Z,6.51
2019-03-26T02:15:46.730Z,6.52
2019-03-26T02:18:18.491Z,6.52
2019-03-26T02:20:50.042Z,6.51
2019-03-26T02:23:21.905Z,6.52
2019-03-26T02:25:53.293Z,6.53
2019-03-26T02:28:24.914Z,6.62
2019-03-26T02:30:56.383Z,6.50
2019-03-26T02:33:28.145Z,6.59
2019-03-26T02:35:59.991Z,6.48
2019-03-26T02:38:31.601Z,6.52
2019-03-26T02:41:03.213Z,6.48
2019-03-26T02:43:34.767Z,6.42
2019-03-26T02:46:07.246Z,6.43
2019-03-26T02:48:38.882Z,6.40
2019-03-26T02:51:10.540Z,6.41
2019-03-26T02:53:42.321Z,6.42
2019-03-26T02:56:15.085Z,6.40
2019-03-26T02:58:46.753Z,6.42
2019-03-26T03:01:18.402Z,6.44
2019-03-26T03:03:50.057Z,6.41
2019-03-26T03:06:21.717Z,6.52
2019-03-26T03:08:53.372Z,6.53
2019-03-26T03:11:25.154Z,6.50
2019-03-26T03:13:56.911Z,6.49
2019-03-26T03:16:28.380Z,6.54
2019-03-26T03:19:00.019Z,6.47
2019-03-26T03:21:31.585Z,6.53
2019-03-26T03:24:03.369Z,6.49
2019-03-26T03:26:35.103Z,6.43
2019-03-26T03:29:06.853Z,6.43
2019-03-26T03:31:38.562Z,6.43
2019-03-26T03:34:10.087Z,6.44
2019-03-26T03:36:41.731Z,6.45
2019-03-26T03:39:13.583Z,6.47
2019-03-26T03:41:45.246Z,6.42
2019-03-26T03:44:16.627Z,6.45
2019-03-26T03:46:48.353Z,6.46
2019-03-26T03:49:21.436Z,6.43
2019-03-26T03:51:53.054Z,6.43
2019-03-26T03:54:24.767Z,6.39
2019-03-26T03:56:57.032Z,6.44
2019-03-26T03:59:28.808Z,6.50
2019-03-26T04:02:00.444Z,6.43
2019-03-26T04:04:32.101Z,6.42
2019-03-26T04:07:03.666Z,6.43
2019-03-26T04:09:35.324Z,6.45
2019-03-26T04:12:07.082Z,6.43
2019-03-26T04:14:38.840Z,6.44
2019-03-26T04:17:10.321Z,6.46
2019-03-26T04:19:42.061Z,6.50
2019-03-26T04:22:13.611Z,6.54
2019-03-26T04:24:45.309Z,6.52
2019-03-26T04:27:17.028Z,6.59
2019-03-26T04:29:48.787Z,6.59
2019-03-26T04:32:20.342Z,6.74
2019-03-26T04:34:51.995Z,6.72
2019-03-26T04:37:23.657Z,6.73
2019-03-26T04:39:55.322Z,6.71
2019-03-26T04:42:27.413Z,6.74
2019-03-26T04:44:58.929Z,6.89
2019-03-26T04:47:30.596Z,6.78
2019-03-26T04:50:02.252Z,6.83
2019-03-26T04:52:34.226Z,6.88
2019-03-26T04:55:06.037Z,6.91
2019-03-26T04:57:37.358Z,6.87
2019-03-26T05:00:09.092Z,6.96
2019-03-26T05:02:40.964Z,6.96
2019-03-26T05:05:12.687Z,6.96
2019-03-26T05:07:44.102Z,7.00
2019-03-26T05:10:15.720Z,7.04
2019-03-26T05:12:47.284Z,7.19
2019-03-26T05:15:18.839Z,7.06
2019-03-26T05:17:50.595Z,7.12
2019-03-26T05:20:22.150Z,7.14
2019-03-26T05:22:54.112Z,7.22
2019-03-26T05:25:25.571Z,7.26
2019-03-26T05:27:58.705Z,7.43
2019-03-26T05:30:33.008Z,7.52
2019-03-26T05:33:03.609Z,7.60
2019-03-26T05:35:35.065Z,7.68
2019-03-26T05:38:06.721Z,7.65
2019-03-26T05:40:39.508Z,7.67
2019-03-26T05:43:11.166Z,7.73
2019-03-26T05:46:31.550Z,7.74
2019-03-26T05:49:03.124Z,7.75
2019-03-26T05:51:35.668Z,7.80
2019-03-26T05:54:07.021Z,8.00
2019-03-26T05:56:38.408Z,8.01
2019-03-26T05:59:10.029Z,8.12
2019-03-26T06:01:42.565Z,8.29
2019-03-26T06:04:14.370Z,8.40
2019-03-26T06:06:45.954Z,8.48
2019-03-26T06:09:17.476Z,8.76
2019-03-26T06:11:49.139Z,8.74
2019-03-26T06:14:20.896Z,8.77
2019-03-26T06:16:52.654Z,9.16
2019-03-26T06:19:24.207Z,9.26
2019-03-26T06:21:55.763Z,9.25
2019-03-26T06:24:27.631Z,9.18
2019-03-26T06:26:59.496Z,9.13
2019-03-26T06:29:31.968Z,9.15
2019-03-26T06:32:03.510Z,9.08
2019-03-26T06:34:35.183Z,9.23
2019-03-26T06:37:17.392Z,9.21
2019-03-26T06:39:39.933Z,9.39
2019-03-26T06:42:11.381Z,9.57
2019-03-26T06:44:43.131Z,9.58
2019-03-26T06:47:14.903Z,9.43
2019-03-26T06:49:46.454Z,9.56
2019-03-26T06:52:17.935Z,9.60
2019-03-26T06:54:51.687Z,9.58
2019-03-26T06:57:35.055Z,9.53
2019-03-26T06:59:55.965Z,9.53
2019-03-26T07:02:27.712Z,9.53
2019-03-26T07:04:59.273Z,9.56
2019-03-26T07:07:32.060Z,9.60
2019-03-26T07:10:07.193Z,9.64
2019-03-26T07:12:38.643Z,9.54
2019-03-26T07:15:10.202Z,9.68
2019-03-26T07:17:41.657Z,9.47
2019-03-26T07:20:13.205Z,9.13
2019-03-26T07:22:44.799Z,9.03
2019-03-26T07:25:17.342Z,8.56
2019-03-26T07:27:48.781Z,8.50
2019-03-26T07:30:23.570Z,8.51
2019-03-26T07:32:55.386Z,8.42
2019-03-26T07:35:27.043Z,8.08
2019-03-26T07:37:58.701Z,8.18
2019-03-26T07:40:30.474Z,8.26
2019-03-26T07:43:02.231Z,8.17
2019-03-26T07:45:34.083Z,8.31
2019-03-26T07:48:05.848Z,8.41
2019-03-26T07:50:37.504Z,8.42
2019-03-26T07:53:09.261Z,8.52
2019-03-26T07:55:43.720Z,8.77
2019-03-26T07:58:14.321Z,8.90
2019-03-26T08:00:45.800Z,8.95
2019-03-26T08:03:17.315Z,9.10
2019-03-26T08:05:48.666Z,9.16
2019-03-26T08:08:19.980Z,9.23
2019-03-26T08:10:51.299Z,9.28
2019-03-26T08:13:22.652Z,9.40
2019-03-26T08:15:53.953Z,9.31
2019-03-26T08:18:25.535Z,9.13
2019-03-26T08:20:57.654Z,9.34
2019-03-26T08:23:29.189Z,9.45
2019-03-26T08:26:00.814Z,9.66
2019-03-26T08:28:32.515Z,9.76
2019-03-26T08:31:04.129Z,9.82
2019-03-26T08:33:35.901Z,9.76
2019-03-26T08:36:07.653Z,9.89
2019-03-26T08:38:39.206Z,9.51
2019-03-26T08:41:10.976Z,9.64
2019-03-26T08:43:42.524Z,9.76
2019-03-26T08:46:14.171Z,9.92
2019-03-26T08:48:45.881Z,9.83
2019-03-26T08:51:17.598Z,9.83
2019-03-26T08:53:49.465Z,9.92
2019-03-26T08:56:21.018Z,10.12
2019-03-26T08:58:52.674Z,9.71
2019-03-26T09:01:24.538Z,9.58
2019-03-26T09:03:56.346Z,9.73
2019-03-26T09:06:28.776Z,9.88
2019-03-26T09:09:00.535Z,9.99
2019-03-26T09:11:32.904Z,10.20
2019-03-26T09:14:05.699Z,10.43
2019-03-26T09:16:37.454Z,10.58
2019-03-26T09:19:09.216Z,10.76
2019-03-26T09:21:40.726Z,10.91
2019-03-26T09:24:12.425Z,11.18
2019-03-26T09:26:44.005Z,11.28
2019-03-26T09:29:15.640Z,11.40
2019-03-26T09:31:47.301Z,11.56
2019-03-26T09:34:18.871Z,11.59
2019-03-26T09:36:50.641Z,11.67
2019-03-26T09:39:22.372Z,11.88
2019-03-26T09:41:53.784Z,11.79
2019-03-26T09:44:25.484Z,11.96
2019-03-26T09:46:57.244Z,12.12
2019-03-26T09:49:29.010Z,12.06
2019-03-26T09:52:00.804Z,12.09
2019-03-26T09:54:32.431Z,11.77
2019-03-26T09:57:03.995Z,11.60
2019-03-26T09:59:35.747Z,11.50
2019-03-26T10:02:07.391Z,11.48
2019-03-26T10:04:39.160Z,11.82
2019-03-26T10:07:20.872Z,11.83
2019-03-26T10:09:43.804Z,11.98
2019-03-26T10:12:15.461Z,12.03
2019-03-26T10:14:47.120Z,12.18
2019-03-26T10:17:18.884Z,12.14
2019-03-26T10:19:50.437Z,11.93
2019-03-26T10:22:22.091Z,11.99
2019-03-26T10:24:53.749Z,12.15
2019-03-26T10:27:25.472Z,11.83
2019-03-26T10:29:57.197Z,11.62
2019-03-26T10:32:28.822Z,11.75
2019-03-26T10:35:00.363Z,11.67
2019-03-26T10:37:32.144Z,11.93
2019-03-26T10:40:04.634Z,11.94
2019-03-26T10:42:36.075Z,11.97
2019-03-26T10:45:07.746Z,12.13
2019-03-26T10:47:39.390Z,12.27
2019-03-26T10:50:10.852Z,12.25
2019-03-26T10:52:45.257Z,12.25
2019-03-26T10:55:16.814Z,12.43
2019-03-26T10:57:48.615Z,12.39
2019-03-26T11:00:20.758Z,12.33
2019-03-26T11:02:54.112Z,12.28
2019-03-26T11:05:25.258Z,12.42
2019-03-26T11:07:57.052Z,12.44
2019-03-26T11:10:28.706Z,12.30
2019-03-26T11:13:00.367Z,12.47
2019-03-26T11:15:32.123Z,12.55
2019-03-26T11:18:03.790Z,12.72
2019-03-26T11:20:35.355Z,12.72
2019-03-26T11:23:06.996Z,12.86
2019-03-26T11:25:38.659Z,13.20
2019-03-26T11:28:10.215Z,13.06
2019-03-26T11:30:41.679Z,13.01
2019-03-26T11:33:13.531Z,12.99
2019-03-26T11:35:44.979Z,13.01
2019-03-26T11:38:18.516Z,13.10
2019-03-26T11:40:49.855Z,12.93
2019-03-26T11:43:22.191Z,13.22
2019-03-26T11:45:53.866Z,13.24
2019-03-26T11:48:25.418Z,12.97
2019-03-26T11:50:56.974Z,12.80
2019-03-26T11:53:28.732Z,12.66
2019-03-26T11:56:00.058Z,12.64
2019-03-26T11:58:31.840Z,12.55
2019-03-26T12:01:03.653Z,12.56
2019-03-26T12:03:35.056Z,12.73
2019-03-26T12:06:06.851Z,12.50
2019-03-26T12:08:38.679Z,12.53
2019-03-26T12:11:10.341Z,12.66
2019-03-26T12:13:42.190Z,12.76
2019-03-26T12:16:14.556Z,12.72
2019-03-26T12:18:46.234Z,12.78
2019-03-26T12:21:17.994Z,12.87
2019-03-26T12:23:49.856Z,12.92
2019-03-26T12:26:21.408Z,12.95
2019-03-26T12:28:53.110Z,13.14
2019-03-26T12:31:24.731Z,13.15
2019-03-26T12:33:56.317Z,12.91
2019-03-26T12:36:39.352Z,12.96
2019-03-26T12:39:00.928Z,12.79
2019-03-26T12:41:34.334Z,13.00
2019-03-26T12:44:05.982Z,13.16
2019-03-26T12:46:38.869Z,13.14
2019-03-26T12:49:10.432Z,13.03
2019-03-26T12:51:42.183Z,13.03
2019-03-26T12:54:13.745Z,13.10
2019-03-26T12:56:45.503Z,13.14
2019-03-26T12:59:18.178Z,13.03
2019-03-26T13:01:50.042Z,12.93
2019-03-26T13:04:21.499Z,13.15
2019-03-26T13:06:53.262Z,13.05
2019-03-26T13:09:24.924Z,12.96
2019-03-26T13:11:56.578Z,13.20
2019-03-26T13:14:33.963Z,13.01
2019-03-26T13:17:05.214Z,13.11
2019-03-26T13:19:36.283Z,13.00
2019-03-26T13:22:07.709Z,13.00
2019-03-26T13:24:39.364Z,13.08
2019-03-26T13:27:10.423Z,12.97
2019-03-26T13:29:41.860Z,12.73
2019-03-26T13:32:13.326Z,12.56
2019-03-26T13:34:44.681Z,12.71
2019-03-26T13:37:16.116Z,12.75
2019-03-26T13:39:47.575Z,12.64
2019-03-26T13:42:18.922Z,12.68
2019-03-26T13:44:50.168Z,12.62
2019-03-26T13:47:22.650Z,12.63
2019-03-26T13:49:53.901Z,12.55
2019-03-26T13:52:25.135Z,12.36
2019-03-26T13:54:57.520Z,12.38
2019-03-26T13:57:28.972Z,12.30
2019-03-26T14:00:00.396Z,12.37
2019-03-26T14:02:31.881Z,12.20
2019-03-26T14:05:04.155Z,12.09
2019-03-26T14:07:35.293Z,12.15
2019-03-26T14:10:06.643Z,12.14
2019-03-26T14:12:38.101Z,12.09
2019-03-26T14:15:10.398Z,12.05
2019-03-26T14:17:41.823Z,11.96
2019-03-26T14:20:13.385Z,12.03
2019-03-26T14:22:44.528Z,11.99
2019-03-26T14:25:15.778Z,11.98
2019-03-26T14:27:47.135Z,11.85
2019-03-26T14:30:27.519Z,11.68
2019-03-26T14:32:59.020Z,11.79
2019-03-26T14:35:30.288Z,11.70
2019-03-26T14:38:01.740Z,11.68
2019-03-26T14:40:33.100Z,11.57
2019-03-26T14:43:04.359Z,11.60
2019-03-26T14:45:36.014Z,11.53
2019-03-26T14:48:08.578Z,11.60
2019-03-26T14:50:40.137Z,11.55
2019-03-26T14:53:11.378Z,11.55
2019-03-26T14:55:42.730Z,11.67
2019-03-26T14:58:14.078Z,11.47
2019-03-26T15:00:45.534Z,11.47
2019-03-26T15:03:16.990Z,11.36
2019-03-26T15:05:48.437Z,11.29
2019-03-26T15:08:19.897Z,11.22
2019-03-26T15:10:51.345Z,11.17
2019-03-26T15:13:22.512Z,11.12
2019-03-26T15:15:53.843Z,11.08
2019-03-26T15:18:25.501Z,11.02
2019-03-26T15:20:56.782Z,10.98
2019-03-26T15:23:28.103Z,10.96
2019-03-26T15:25:59.451Z,10.92
2019-03-26T15:28:30.833Z,10.90
2019-03-26T15:31:02.318Z,10.89
2019-03-26T15:33:34.047Z,10.89
2019-03-26T15:36:05.092Z,10.89
2019-03-26T15:38:36.409Z,10.88
2019-03-26T15:41:20.992Z,10.80
2019-03-26T15:43:42.183Z,10.72
2019-03-26T15:46:13.440Z,10.31
2019-03-26T15:48:44.984Z,10.17
2019-03-26T15:51:16.443Z,10.04
2019-03-26T15:53:47.892Z,9.84
2019-03-26T15:56:19.245Z,9.76
2019-03-26T15:58:50.693Z,9.62
2019-03-26T16:01:24.355Z,9.51
2019-03-26T16:03:55.240Z,9.54
2019-03-26T16:06:26.474Z,9.43
2019-03-26T16:08:57.940Z,9.35
2019-03-26T16:11:35.679Z,9.29
2019-03-26T16:14:02.089Z,9.19
2019-03-26T16:16:33.429Z,9.13
2019-03-26T16:19:04.882Z,9.08
2019-03-26T16:21:36.267Z,8.98
2019-03-26T16:24:07.682Z,8.92
2019-03-26T16:26:39.137Z,8.88
2019-03-26T16:29:10.566Z,8.84
2019-03-26T16:31:42.044Z,8.78
2019-03-26T16:34:13.499Z,8.79
2019-03-26T16:36:58.816Z,8.78
2019-03-26T16:39:19.368Z,8.59
2019-03-26T16:41:50.937Z,8.51
2019-03-26T16:44:22.698Z,8.42
2019-03-26T16:46:54.252Z,8.41
2019-03-26T16:49:26.007Z,8.23
2019-03-26T16:51:57.466Z,8.02
2019-03-26T16:54:29.016Z,7.95
2019-03-26T16:57:00.387Z,7.90
2019-03-26T16:59:31.920Z,7.89
2019-03-26T17:02:03.373Z,7.90
2019-03-26T17:04:34.862Z,7.82
2019-03-26T17:07:06.381Z,7.82
2019-03-26T17:09:37.939Z,7.79
2019-03-26T17:12:09.084Z,7.75
2019-03-26T17:14:40.436Z,7.78
2019-03-26T17:17:11.524Z,7.77
2019-03-26T17:19:43.045Z,7.74
2019-03-26T17:22:14.486Z,7.75
2019-03-26T17:24:45.734Z,7.73
2019-03-26T17:27:17.290Z,7.69
2019-03-26T17:29:48.639Z,7.67
2019-03-26T17:32:19.994Z,7.68
2019-03-26T17:34:51.249Z,7.67
2019-03-26T17:37:22.689Z,7.67
2019-03-26T17:39:53.837Z,7.68
2019-03-26T17:42:25.091Z,7.69
2019-03-26T17:44:58.383Z,7.68
2019-03-26T17:47:29.742Z,7.66
2019-03-26T17:50:01.087Z,7.60
2019-03-26T17:52:32.538Z,7.59
2019-03-26T17:55:04.832Z,7.55
2019-03-26T17:57:36.270Z,7.57
2019-03-26T18:00:12.730Z,7.53
2019-03-26T18:02:43.977Z,7.61
2019-03-26T18:05:21.368Z,7.65
2019-03-26T18:07:52.721Z,7.58
2019-03-26T18:10:23.972Z,7.66
2019-03-26T18:12:55.320Z,7.62
2019-03-26T18:15:26.484Z,7.58
2019-03-26T18:17:57.917Z,7.50
2019-03-26T18:20:32.787Z,7.49
2019-03-26T18:23:02.463Z,7.48
2019-03-26T18:25:34.118Z,7.45
2019-03-26T18:28:05.466Z,7.47
2019-03-26T18:30:36.851Z,7.39
2019-03-26T18:33:08.282Z,7.28
2019-03-26T18:35:39.529Z,7.24
2019-03-26T18:38:11.076Z,7.24
2019-03-26T18:40:42.346Z,7.30
2019-03-26T18:43:14.900Z,7.25
2019-03-26T18:45:46.266Z,7.18
2019-03-26T18:48:17.604Z,7.16
2019-03-26T18:50:48.855Z,7.15
2019-03-26T18:53:20.408Z,7.11
2019-03-26T18:55:51.661Z,7.12
2019-03-26T18:58:23.210Z,7.07
2019-03-26T19:00:54.766Z,7.01
2019-03-26T19:03:26.034Z,6.97
2019-03-26T19:05:57.468Z,6.94
2019-03-26T19:08:29.040Z,6.91
2019-03-26T19:11:00.588Z,6.85
2019-03-26T19:13:32.044Z,6.89
2019-03-26T19:16:03.185Z,6.82
2019-03-26T19:18:34.643Z,6.85
2019-03-26T19:21:06.078Z,6.83
2019-03-26T19:23:37.745Z,6.84
2019-03-26T19:26:09.007Z,6.82
2019-03-26T19:28:40.267Z,6.81
2019-03-26T19:31:11.806Z,6.76
2019-03-26T19:33:43.160Z,6.80
2019-03-26T19:36:14.605Z,6.74
2019-03-26T19:38:46.882Z,6.70
2019-03-26T19:41:18.330Z,6.68
2019-03-26T19:43:49.983Z,6.68
2019-03-26T19:46:22.673Z,6.62
2019-03-26T19:48:54.105Z,6.61
2019-03-26T19:51:25.677Z,6.57
2019-03-26T19:53:56.923Z,6.60
2019-03-26T19:56:28.480Z,6.61
2019-03-26T19:58:59.940Z,6.62
2019-03-26T20:01:31.181Z,6.56
2019-03-26T20:04:02.839Z,6.43
2019-03-26T20:06:34.381Z,6.39
2019-03-26T20:09:07.179Z,6.45
2019-03-26T20:11:38.426Z,6.34
2019-03-26T20:14:09.678Z,6.35
2019-03-26T20:16:42.287Z,6.32
2019-03-26T20:19:13.600Z,6.23
2019-03-26T20:21:45.172Z,6.24
2019-03-26T20:24:16.624Z,6.15
2019-03-26T20:26:47.965Z,6.16
2019-03-26T20:29:19.314Z,6.12
2019-03-26T20:31:50.496Z,6.07
2019-03-26T20:34:23.452Z,6.03
2019-03-26T20:36:54.542Z,5.99
2019-03-26T20:39:26.966Z,5.93
2019-03-26T20:41:58.318Z,5.90
2019-03-26T20:44:29.878Z,5.86
2019-03-26T20:47:01.340Z,5.83
2019-03-26T20:49:32.771Z,5.85
2019-03-26T20:52:04.334Z,5.75
2019-03-26T20:54:35.995Z,5.78
2019-03-26T20:57:07.445Z,5.72
2019-03-26T20:59:38.899Z,5.72
2019-03-26T21:02:10.358Z,5.77
2019-03-26T21:04:41.914Z,5.68
2019-03-26T21:07:13.257Z,5.66
2019-03-26T21:09:44.627Z,5.63
2019-03-26T21:12:16.070Z,5.62
2019-03-26T21:14:47.412Z,5.65
2019-03-26T21:17:18.970Z,5.67
2019-03-26T21:19:50.161Z,5.62
2019-03-26T21:22:21.566Z,5.60
2019-03-26T21:24:52.817Z,5.63
2019-03-26T21:27:24.165Z,5.65
2019-03-26T21:29:55.722Z,5.68
2019-03-26T21:32:27.074Z,5.59
2019-03-26T21:34:58.530Z,5.60
2019-03-26T21:37:29.983Z,5.63
2019-03-26T21:40:01.332Z,5.60
2019-03-26T21:42:34.114Z,5.59
2019-03-26T21:45:09.255Z,5.59
2019-03-26T21:47:40.361Z,5.54
2019-03-26T21:50:12.618Z,5.54
2019-03-26T21:52:44.022Z,5.50
2019-03-26T21:55:15.363Z,5.50
2019-03-26T21:57:46.830Z,5.47
2019-03-26T22:00:18.176Z,5.41
2019-03-26T22:02:49.720Z,5.45
2019-03-26T22:05:21.079Z,5.48
2019-03-26T22:07:54.773Z,5.47
2019-03-26T22:10:26.347Z,5.35
2019-03-26T22:12:57.903Z,5.34
2019-03-26T22:15:29.165Z,5.26
2019-03-26T22:18:00.603Z,5.23
2019-03-26T22:20:33.067Z,5.11
2019-03-26T22:23:04.679Z,5.04
2019-03-26T22:25:35.982Z,4.94
2019-03-26T22:28:07.226Z,4.87
2019-03-26T22:30:38.684Z,4.79
2019-03-26T22:33:09.865Z,4.76
2019-03-26T22:35:41.188Z,4.75
2019-03-26T22:38:12.525Z,4.71
2019-03-26T22:40:44.085Z,4.62
2019-03-26T22:43:15.304Z,4.62
2019-03-26T22:45:46.788Z,4.47
2019-03-26T22:48:18.227Z,4.41
2019-03-26T22:50:49.579Z,4.36
2019-03-26T22:53:21.152Z,4.31
2019-03-26T22:55:52.504Z,4.26
2019-03-26T22:58:23.676Z,4.16
2019-03-26T23:00:55.305Z,4.19
2019-03-26T23:03:26.763Z,4.04
2019-03-26T23:05:58.110Z,4.01
2019-03-26T23:08:29.654Z,3.99
2019-03-26T23:11:01.124Z,3.94
2019-03-26T23:13:32.467Z,3.88
2019-03-26T23:16:04.029Z,3.83
2019-03-26T23:18:35.362Z,3.83
2019-03-26T23:21:06.725Z,3.78
2019-03-26T23:23:38.075Z,3.68
2019-03-26T23:26:09.324Z,3.68
2019-03-26T23:28:40.775Z,3.64
2019-03-26T23:31:12.339Z,3.59
2019-03-26T23:33:43.886Z,3.50
2019-03-26T23:36:15.236Z,3.48
2019-03-26T23:38:46.484Z,3.44
2019-03-26T23:41:17.938Z,3.37
2019-03-26T23:43:49.292Z,3.30
2019-03-26T23:46:20.538Z,3.30
2019-03-26T23:48:51.792Z,3.29
2019-03-26T23:51:23.125Z,3.26
2019-03-26T23:53:56.230Z,3.19
2019-03-26T23:56:27.578Z,3.17
2019-03-26T23:58:59.028Z,3.16
